createdAt,value
2022-08-17T00:01:51.965Z,6.73
2022-08-17T00:04:20.813Z,7.23
2022-08-17T00:06:49.139Z,6.70
2022-08-17T00:09:19.036Z,6.37
2022-08-17T00:12:42.870Z,6.17
2022-08-17T00:14:58.836Z,9.07
2022-08-17T00:17:26.335Z,8.57
2022-08-17T00:19:53.871Z,12.87
2022-08-17T00:22:34.399Z,6.93
2022-08-17T00:25:05.783Z,5.83
2022-08-17T00:27:33.503Z,8.23
2022-08-17T00:30:01.043Z,7.27
2022-08-17T00:33:12.615Z,7.63
2022-08-17T00:35:17.255Z,7.47
2022-08-17T00:37:44.787Z,7.57
2022-08-17T00:40:13.808Z,11.60
2022-08-17T00:42:41.810Z,10.17
2022-08-17T00:45:10.387Z,7.17
2022-08-17T00:47:37.923Z,6.53
2022-08-17T00:50:06.469Z,6.63
2022-08-17T00:52:36.630Z,9.97
2022-08-17T00:55:05.494Z,8.03
2022-08-17T00:57:35.890Z,10.20
2022-08-17T01:00:07.775Z,6.63
2022-08-17T01:02:42.790Z,7.40
2022-08-17T01:05:13.555Z,6.70
2022-08-17T01:07:41.641Z,6.63
2022-08-17T01:11:00.789Z,11.23
2022-08-17T01:12:57.566Z,6.90
2022-08-17T01:15:25.048Z,11.47
2022-08-17T01:17:52.597Z,9.43
2022-08-17T01:20:20.080Z,8.63
2022-08-17T01:22:47.672Z,6.43
2022-08-17T01:25:15.655Z,7.17
2022-08-17T01:27:43.507Z,7.20
2022-08-17T01:30:58.439Z,9.13
2022-08-17T01:33:00.540Z,7.77
2022-08-17T01:35:28.044Z,11.10
2022-08-17T01:37:55.567Z,8.40
2022-08-17T01:40:35.216Z,8.13
2022-08-17T01:43:07.497Z,8.50
2022-08-17T01:45:39.813Z,7.67
2022-08-17T01:48:09.860Z,6.37
2022-08-17T01:50:38.308Z,7.27
2022-08-17T01:53:07.581Z,9.83
2022-08-17T01:55:40.998Z,8.17
2022-08-17T01:58:08.796Z,8.97
2022-08-17T02:00:59.870Z,6.93
2022-08-17T02:03:27.630Z,9.50
2022-08-17T02:05:55.190Z,7.30
2022-08-17T02:08:36.900Z,11.47
2022-08-17T02:11:11.183Z,7.57
2022-08-17T02:13:39.791Z,8.87
2022-08-17T02:16:07.340Z,6.90
2022-08-17T02:18:34.899Z,7.30
2022-08-17T02:21:02.594Z,9.50
2022-08-17T02:23:31.837Z,9.07
2022-08-17T02:26:00.827Z,7.23
2022-08-17T02:28:28.607Z,6.27
2022-08-17T02:31:01.301Z,12.10
2022-08-17T02:33:33.792Z,7.87
2022-08-17T02:36:12.219Z,6.93
2022-08-17T02:38:40.074Z,7.53
2022-08-17T02:41:07.590Z,7.43
2022-08-17T02:43:35.601Z,7.30
2022-08-17T02:46:03.165Z,13.17
2022-08-17T02:48:31.814Z,6.77
2022-08-17T02:51:00.189Z,6.73
2022-08-17T02:53:27.989Z,11.43
2022-08-17T02:56:03.789Z,7.83
2022-08-17T02:58:35.567Z,7.90
2022-08-17T03:01:05.024Z,9.10
2022-08-17T03:03:32.514Z,7.90
2022-08-17T03:06:00.008Z,11.17
2022-08-17T03:08:27.469Z,9.17
2022-08-17T03:10:54.981Z,7.43
2022-08-17T03:13:22.452Z,9.57
2022-08-17T03:15:50.504Z,10.50
2022-08-17T03:18:25.395Z,10.27
2022-08-17T03:20:54.952Z,9.53
2022-08-17T03:23:26.130Z,9.40
2022-08-17T03:25:55.570Z,7.97
2022-08-17T03:28:23.559Z,11.13
2022-08-17T03:30:51.664Z,7.30
2022-08-17T03:33:19.528Z,9.53
2022-08-17T03:35:47.081Z,9.00
2022-08-17T03:38:16.014Z,6.83
2022-08-17T03:40:58.771Z,8.60
2022-08-17T03:43:28.617Z,7.90
2022-08-17T03:45:56.245Z,8.80
2022-08-17T03:48:23.849Z,8.07
2022-08-17T03:50:51.822Z,9.10
2022-08-17T03:53:19.272Z,11.00
2022-08-17T03:55:46.813Z,10.47
2022-08-17T03:58:14.428Z,6.13
2022-08-17T04:00:41.901Z,6.33
2022-08-17T04:03:09.444Z,9.07
2022-08-17T04:05:36.930Z,8.23
2022-08-17T04:08:05.179Z,6.27
2022-08-17T04:10:33.955Z,6.63
2022-08-17T04:13:08.870Z,7.20
2022-08-17T04:15:36.424Z,8.40
2022-08-17T04:18:03.917Z,6.00
2022-08-17T04:20:31.439Z,10.30
2022-08-17T04:23:09.334Z,5.90
2022-08-17T04:25:38.546Z,9.80
2022-08-17T04:28:09.030Z,20.53
2022-08-17T04:30:44.860Z,13.87
2022-08-17T04:33:15.000Z,8.07
2022-08-17T04:35:44.340Z,7.63
2022-08-17T04:38:13.332Z,7.73
2022-08-17T04:40:40.962Z,4.87
2022-08-17T04:43:10.713Z,5.77
2022-08-17T04:45:55.434Z,7.20
2022-08-17T04:48:35.822Z,4.53
2022-08-17T04:51:06.821Z,6.00
2022-08-17T04:53:34.363Z,8.60
2022-08-17T04:56:01.951Z,7.87
2022-08-17T04:58:29.428Z,6.20
2022-08-17T05:00:56.956Z,10.73
2022-08-17T05:03:24.551Z,7.83
2022-08-17T05:05:52.047Z,7.73
2022-08-17T05:08:20.302Z,5.97
2022-08-17T05:10:48.502Z,7.93
2022-08-17T05:13:23.880Z,9.73
2022-08-17T05:15:54.511Z,8.68
2022-08-17T05:18:22.470Z,7.03
2022-08-17T05:20:52.661Z,7.63
2022-08-17T05:23:21.045Z,6.87
2022-08-17T05:25:50.488Z,6.40
2022-08-17T05:28:19.420Z,4.70
2022-08-17T05:30:51.804Z,5.77
2022-08-17T05:33:21.057Z,5.40
2022-08-17T05:35:49.800Z,6.40
2022-08-17T05:38:18.839Z,8.23
2022-08-17T05:40:46.767Z,7.43
2022-08-17T05:43:15.831Z,7.87
2022-08-17T05:45:56.079Z,8.47
2022-08-17T05:48:36.800Z,6.43
2022-08-17T05:51:07.278Z,5.70
2022-08-17T05:53:46.420Z,3.43
2022-08-17T05:56:22.690Z,8.63
2022-08-17T05:59:16.362Z,4.90
2022-08-17T06:01:52.942Z,4.33
2022-08-17T06:04:42.113Z,9.63
2022-08-17T06:07:12.458Z,6.03
2022-08-17T06:10:18.499Z,9.43
2022-08-17T06:13:04.419Z,7.80
2022-08-17T06:15:35.380Z,7.73
2022-08-17T06:18:05.031Z,4.30
2022-08-17T06:20:39.209Z,4.90
2022-08-17T06:23:10.853Z,5.20
2022-08-17T06:25:52.113Z,8.27
2022-08-17T06:28:32.101Z,4.20
2022-08-17T06:31:05.799Z,7.67
2022-08-17T06:33:37.476Z,7.37
2022-08-17T06:36:29.034Z,4.73
2022-08-17T06:39:18.217Z,11.50
2022-08-17T06:41:51.490Z,9.13
2022-08-17T06:44:43.729Z,7.90
2022-08-17T06:47:28.776Z,8.00
2022-08-17T06:50:01.376Z,6.30
2022-08-17T06:52:42.137Z,5.33
2022-08-17T06:55:45.546Z,8.67
2022-08-17T06:58:16.108Z,10.53
2022-08-17T07:00:46.667Z,6.53
2022-08-17T07:03:29.527Z,6.43
2022-08-17T07:06:29.238Z,8.67
2022-08-17T07:09:09.424Z,7.97
2022-08-17T07:11:56.881Z,12.10
2022-08-17T07:14:32.187Z,11.00
2022-08-17T07:17:13.305Z,7.77
2022-08-17T07:19:43.510Z,10.70
2022-08-17T07:22:57.603Z,9.67
2022-08-17T07:25:21.108Z,18.73
2022-08-17T07:27:52.063Z,8.50
2022-08-17T07:30:29.177Z,7.97
2022-08-17T07:32:58.696Z,6.93
2022-08-17T07:35:31.382Z,11.47
2022-08-17T07:38:29.581Z,8.10
2022-08-17T07:40:56.739Z,9.80
2022-08-17T07:43:29.645Z,6.87
2022-08-17T07:46:18.700Z,8.27
2022-08-17T07:48:50.074Z,8.80
2022-08-17T07:51:33.334Z,12.17
2022-08-17T07:54:14.383Z,10.20
2022-08-17T07:56:55.632Z,11.47
2022-08-17T07:59:30.560Z,14.63
2022-08-17T08:02:14.270Z,10.50
2022-08-17T08:05:00.488Z,11.17
2022-08-17T08:07:40.166Z,15.57
2022-08-17T08:10:13.418Z,8.03
2022-08-17T08:12:41.945Z,12.73
2022-08-17T08:15:13.643Z,17.00
2022-08-17T08:17:55.117Z,16.80
2022-08-17T08:20:50.898Z,12.03
2022-08-17T08:23:28.051Z,12.67
2022-08-17T08:26:20.205Z,14.57
2022-08-17T08:29:06.374Z,11.37
2022-08-17T08:31:48.243Z,12.83
2022-08-17T08:34:58.785Z,13.73
2022-08-17T08:37:33.745Z,15.63
2022-08-17T08:40:15.618Z,24.43
2022-08-17T08:42:56.823Z,13.13
2022-08-17T08:45:49.418Z,9.60
2022-08-17T08:48:56.129Z,14.73
2022-08-17T08:51:38.567Z,15.87
2022-08-17T08:54:26.806Z,16.80
2022-08-17T08:57:33.481Z,14.13
2022-08-17T09:00:11.297Z,10.47
2022-08-17T09:03:06.307Z,12.67
2022-08-17T09:05:52.341Z,12.63
2022-08-17T09:08:52.133Z,11.63
2022-08-17T09:12:01.786Z,15.23
2022-08-17T09:14:54.196Z,17.87
2022-08-17T09:17:48.364Z,11.10
2022-08-17T09:20:27.951Z,16.13
2022-08-17T09:23:06.967Z,13.33
2022-08-17T09:25:46.767Z,11.17
2022-08-17T09:28:27.346Z,10.37
2022-08-17T09:30:59.392Z,11.70
2022-08-17T09:33:28.022Z,12.33
2022-08-17T09:36:29.472Z,11.13
2022-08-17T09:39:39.079Z,20.73
2022-08-17T09:42:22.128Z,17.67
2022-08-17T09:44:58.023Z,13.97
2022-08-17T09:47:31.569Z,15.53
2022-08-17T09:51:01.625Z,15.20
2022-08-17T09:53:12.117Z,13.90
2022-08-17T09:55:47.321Z,14.27
2022-08-17T09:58:20.188Z,17.97
2022-08-17T10:01:02.790Z,14.73
2022-08-17T10:03:35.359Z,16.50
2022-08-17T10:06:13.410Z,12.90
2022-08-17T10:08:56.485Z,15.00
2022-08-17T10:11:45.539Z,15.00
2022-08-17T10:14:44.422Z,14.10
2022-08-17T10:17:17.650Z,18.57
2022-08-17T10:19:51.698Z,17.83
2022-08-17T10:22:34.788Z,14.57
2022-08-17T10:25:21.360Z,14.60
2022-08-17T10:28:19.755Z,15.47
2022-08-17T10:31:05.259Z,14.90
2022-08-17T10:34:20.650Z,15.73
2022-08-17T10:36:53.749Z,12.43
2022-08-17T10:39:31.615Z,11.83
2022-08-17T10:42:15.642Z,12.83
2022-08-17T10:45:14.841Z,13.50
2022-08-17T10:48:22.838Z,14.43
2022-08-17T10:50:56.069Z,10.47
2022-08-17T10:53:32.325Z,16.20
2022-08-17T10:56:14.716Z,12.27
2022-08-17T10:58:52.876Z,14.93
2022-08-17T11:01:32.539Z,11.93
2022-08-17T11:04:18.921Z,15.30
2022-08-17T11:07:16.081Z,16.50
2022-08-17T11:09:52.279Z,20.73
2022-08-17T11:12:38.255Z,24.83
2022-08-17T11:15:14.974Z,13.47
2022-08-17T11:18:08.287Z,17.23
2022-08-17T11:20:57.494Z,15.77
2022-08-17T11:23:30.845Z,14.73
2022-08-17T11:26:00.395Z,18.00
2022-08-17T11:28:35.545Z,19.30
2022-08-17T11:31:38.561Z,20.47
2022-08-17T11:34:17.147Z,20.10
2022-08-17T11:37:06.974Z,22.03
2022-08-17T11:39:53.546Z,22.80
2022-08-17T11:42:33.830Z,19.23
2022-08-17T11:45:10.477Z,17.93
2022-08-17T11:48:15.937Z,19.90
2022-08-17T11:50:47.479Z,20.03
2022-08-17T11:53:36.552Z,18.90
2022-08-17T11:56:09.367Z,25.43
2022-08-17T11:58:45.572Z,22.07
2022-08-17T12:01:32.995Z,20.37
2022-08-17T12:04:34.075Z,18.87
2022-08-17T12:07:16.816Z,19.87
2022-08-17T12:09:51.433Z,21.37
2022-08-17T12:12:25.416Z,18.73
2022-08-17T12:15:10.197Z,15.70
2022-08-17T12:17:41.206Z,22.90
2022-08-17T12:20:26.411Z,18.43
2022-08-17T12:23:17.962Z,14.13
2022-08-17T12:25:52.599Z,22.20
2022-08-17T12:28:30.403Z,21.67
2022-08-17T12:31:05.491Z,28.03
2022-08-17T12:33:35.881Z,20.20
2022-08-17T12:36:06.464Z,21.47
2022-08-17T12:38:36.523Z,18.50
2022-08-17T12:41:06.967Z,29.03
2022-08-17T12:43:34.278Z,22.70
2022-08-17T12:46:13.352Z,19.73
2022-08-17T12:48:59.850Z,20.77
2022-08-17T12:51:27.997Z,21.83
2022-08-17T12:53:57.520Z,19.80
2022-08-17T12:56:25.769Z,17.13
2022-08-17T12:58:56.791Z,20.70
2022-08-17T13:01:24.604Z,20.33
2022-08-17T13:03:55.145Z,23.37
2022-08-17T13:06:30.172Z,21.07
2022-08-17T13:09:08.016Z,19.60
2022-08-17T13:11:35.257Z,19.73
2022-08-17T13:14:10.190Z,20.63
2022-08-17T13:16:37.813Z,21.20
2022-08-17T13:19:09.795Z,26.10
2022-08-17T13:21:44.070Z,24.10
2022-08-17T13:24:21.021Z,24.77
2022-08-17T13:27:08.581Z,23.47
2022-08-17T13:29:44.999Z,22.80
2022-08-17T13:32:45.147Z,22.40
2022-08-17T13:35:34.481Z,34.13
2022-08-17T13:38:13.324Z,22.77
2022-08-17T13:40:52.431Z,28.07
2022-08-17T13:43:45.707Z,28.97
2022-08-17T13:46:19.024Z,25.53
2022-08-17T13:48:56.107Z,30.50
2022-08-17T13:51:29.541Z,22.83
2022-08-17T13:54:02.585Z,26.77
2022-08-17T13:56:54.286Z,31.87
2022-08-17T13:59:52.651Z,33.07
2022-08-17T14:02:19.506Z,26.90
2022-08-17T14:04:48.404Z,29.90
2022-08-17T14:07:15.640Z,30.77
2022-08-17T14:09:53.817Z,27.37
2022-08-17T14:12:23.463Z,22.10
2022-08-17T14:14:52.085Z,30.30
2022-08-17T14:17:19.626Z,24.17
2022-08-17T14:19:46.894Z,26.40
2022-08-17T14:22:20.105Z,27.37
2022-08-17T14:24:47.366Z,25.27
2022-08-17T14:27:14.652Z,27.00
2022-08-17T14:29:42.091Z,23.10
2022-08-17T14:32:42.015Z,22.10
2022-08-17T14:35:12.397Z,27.57
2022-08-17T14:37:40.131Z,25.10
2022-08-17T14:40:11.503Z,26.47
2022-08-17T14:42:41.601Z,26.93
2022-08-17T14:45:31.495Z,21.43
2022-08-17T14:47:59.012Z,22.73
2022-08-17T14:50:26.326Z,25.93
2022-08-17T14:52:53.828Z,24.53
2022-08-17T14:55:23.013Z,28.63
2022-08-17T14:57:50.536Z,26.23
2022-08-17T15:00:18.220Z,26.17
2022-08-17T15:02:57.487Z,25.83
2022-08-17T15:05:28.579Z,21.13
2022-08-17T15:07:56.008Z,24.17
2022-08-17T15:10:25.883Z,23.20
2022-08-17T15:12:53.684Z,24.60
2022-08-17T15:15:20.970Z,21.57
2022-08-17T15:17:48.406Z,21.70
2022-08-17T15:20:20.937Z,24.67
2022-08-17T15:22:49.795Z,23.70
2022-08-17T15:25:18.883Z,22.43
2022-08-17T15:27:47.030Z,19.60
2022-08-17T15:30:16.451Z,16.60
2022-08-17T15:32:46.833Z,14.37
2022-08-17T15:35:28.954Z,15.13
2022-08-17T15:38:03.386Z,17.87
2022-08-17T15:40:36.752Z,8.83
2022-08-17T15:43:10.003Z,12.53
2022-08-17T15:45:39.206Z,8.67
2022-08-17T15:48:06.736Z,9.50
2022-08-17T15:50:33.952Z,9.53
2022-08-17T15:53:02.294Z,9.00
2022-08-17T15:55:31.057Z,10.27
2022-08-17T15:57:58.606Z,11.07
2022-08-17T16:00:26.177Z,9.60
2022-08-17T16:03:14.278Z,13.77
2022-08-17T16:05:41.077Z,12.67
2022-08-17T16:08:08.786Z,13.60
2022-08-17T16:10:36.233Z,9.33
2022-08-17T16:13:04.408Z,9.53
2022-08-17T16:15:32.033Z,8.50
2022-08-17T16:17:59.604Z,10.67
2022-08-17T16:20:27.362Z,9.07
2022-08-17T16:22:55.238Z,11.20
2022-08-17T16:25:51.937Z,9.03
2022-08-17T16:28:14.883Z,9.63
2022-08-17T16:30:42.786Z,15.37
2022-08-17T16:33:11.159Z,14.13
2022-08-17T16:35:38.471Z,16.60
2022-08-17T16:38:07.196Z,12.27
2022-08-17T16:40:35.843Z,14.10
2022-08-17T16:43:04.111Z,13.57
2022-08-17T16:45:31.623Z,11.90
2022-08-17T16:47:58.836Z,14.67
2022-08-17T16:50:26.048Z,11.20
2022-08-17T16:53:07.339Z,14.47
2022-08-17T16:55:35.040Z,14.77
2022-08-17T16:58:06.093Z,14.37
2022-08-17T17:00:33.670Z,14.03
2022-08-17T17:03:19.865Z,16.37
2022-08-17T17:06:20.996Z,15.23
2022-08-17T17:09:10.410Z,13.13
2022-08-17T17:11:43.935Z,12.77
2022-08-17T17:14:42.351Z,10.80
2022-08-17T17:17:18.025Z,10.73
2022-08-17T17:20:00.292Z,13.03
2022-08-17T17:22:51.234Z,12.47
2022-08-17T17:25:33.660Z,14.83
2022-08-17T17:28:13.147Z,13.83
2022-08-17T17:30:43.350Z,21.93
2022-08-17T17:33:16.005Z,12.30
2022-08-17T17:35:51.011Z,11.83
2022-08-17T17:38:23.041Z,13.10
2022-08-17T17:41:03.398Z,9.43
2022-08-17T17:43:38.878Z,9.37
2022-08-17T17:46:28.609Z,8.30
2022-08-17T17:48:57.856Z,10.13
2022-08-17T17:52:06.625Z,8.60
2022-08-17T17:54:42.451Z,9.27
2022-08-17T17:57:35.525Z,10.77
2022-08-17T18:00:02.732Z,8.27
2022-08-17T18:02:42.141Z,8.20
2022-08-17T18:05:43.903Z,12.00
2022-08-17T18:08:41.962Z,8.37
2022-08-17T18:11:12.739Z,8.70
2022-08-17T18:13:53.206Z,7.93
2022-08-17T18:16:21.152Z,7.93
2022-08-17T18:18:51.547Z,8.63
2022-08-17T18:21:25.339Z,9.20
2022-08-17T18:23:54.670Z,11.63
2022-08-17T18:26:45.118Z,9.17
2022-08-17T18:29:27.702Z,8.33
2022-08-17T18:32:22.132Z,9.00
2022-08-17T18:34:57.121Z,11.07
2022-08-17T18:38:02.056Z,8.83
2022-08-17T18:40:36.008Z,9.40
2022-08-17T18:43:05.763Z,11.10
2022-08-17T18:45:44.485Z,9.60
2022-08-17T18:48:29.295Z,12.53
2022-08-17T18:51:35.742Z,10.50
2022-08-17T18:54:22.744Z,13.97
2022-08-17T18:57:12.907Z,9.70
2022-08-17T18:59:41.861Z,11.67
2022-08-17T19:02:19.460Z,14.50
2022-08-17T19:05:01.231Z,15.03
2022-08-17T19:07:44.591Z,17.40
2022-08-17T19:10:22.569Z,16.00
2022-08-17T19:13:12.456Z,16.07
2022-08-17T19:16:15.326Z,17.17
2022-08-17T19:19:00.162Z,17.90
2022-08-17T19:21:36.297Z,16.30
2022-08-17T19:24:06.369Z,16.57
2022-08-17T19:26:53.338Z,18.13
2022-08-17T19:29:40.929Z,17.87
2022-08-17T19:32:09.992Z,18.37
2022-08-17T19:34:39.553Z,13.80
2022-08-17T19:37:12.825Z,17.17
2022-08-17T19:39:55.814Z,18.10
2022-08-17T19:42:26.206Z,18.87
2022-08-17T19:45:02.860Z,18.60
2022-08-17T19:47:54.344Z,19.73
2022-08-17T19:50:30.733Z,18.50
2022-08-17T19:53:07.301Z,20.07
2022-08-17T19:55:54.600Z,20.17
2022-08-17T19:58:22.096Z,18.17
2022-08-17T20:00:51.875Z,18.90
2022-08-17T20:03:35.699Z,16.13
2022-08-17T20:06:14.004Z,18.80
2022-08-17T20:08:47.577Z,19.47
2022-08-17T20:11:20.982Z,21.63
2022-08-17T20:13:52.674Z,27.60
2022-08-17T20:16:20.696Z,31.73
2022-08-17T20:18:56.059Z,23.70
2022-08-17T20:21:32.492Z,25.20
2022-08-17T20:24:13.881Z,21.20
2022-08-17T20:26:55.472Z,22.87
2022-08-17T20:29:39.987Z,21.93
2022-08-17T20:32:15.215Z,19.10
2022-08-17T20:34:45.543Z,22.57
2022-08-17T20:37:15.851Z,23.43
2022-08-17T20:39:45.160Z,22.07
2022-08-17T20:42:15.565Z,24.67
2022-08-17T20:44:43.755Z,22.40
2022-08-17T20:47:19.812Z,23.27
2022-08-17T20:49:53.511Z,22.93
2022-08-17T20:52:36.259Z,25.47
2022-08-17T20:55:04.536Z,22.07
2022-08-17T20:57:32.010Z,22.90
2022-08-17T21:00:07.819Z,25.53
2022-08-17T21:02:35.341Z,23.47
2022-08-17T21:05:07.206Z,25.37
2022-08-17T21:07:42.961Z,27.97
2022-08-17T21:10:11.219Z,29.77
2022-08-17T21:12:40.911Z,27.43
2022-08-17T21:15:28.720Z,25.73
2022-08-17T21:18:08.430Z,28.20
2022-08-17T21:20:41.660Z,28.70
2022-08-17T21:23:16.316Z,29.43
2022-08-17T21:25:49.766Z,31.87
2022-08-17T21:28:35.901Z,35.60
2022-08-17T21:31:32.098Z,31.77
2022-08-17T21:34:17.338Z,36.97
2022-08-17T21:36:45.312Z,36.83
2022-08-17T21:39:14.023Z,35.67
2022-08-17T21:41:52.652Z,40.03
2022-08-17T21:44:20.146Z,38.67
2022-08-17T21:46:48.989Z,31.73
2022-08-17T21:49:18.254Z,41.40
2022-08-17T21:51:56.973Z,42.17
2022-08-17T21:54:27.565Z,39.83
2022-08-17T21:56:55.266Z,38.50
2022-08-17T21:59:27.381Z,39.20
2022-08-17T22:01:56.490Z,41.23
2022-08-17T22:04:31.818Z,40.20
2022-08-17T22:07:01.023Z,40.03
2022-08-17T22:09:31.854Z,45.20
2022-08-17T22:12:02.540Z,41.73
2022-08-17T22:14:53.396Z,48.30
2022-08-17T22:17:19.243Z,53.77
2022-08-17T22:19:48.798Z,50.90
2022-08-17T22:22:25.413Z,43.37
2022-08-17T22:24:57.277Z,47.27
2022-08-17T22:27:43.883Z,49.70
2022-08-17T22:30:31.650Z,50.80
2022-08-17T22:33:00.286Z,52.97
2022-08-17T22:35:41.206Z,49.90
2022-08-17T22:38:20.957Z,51.87
2022-08-17T22:40:50.437Z,45.40
2022-08-17T22:43:20.097Z,52.30
2022-08-17T22:45:55.228Z,53.53
2022-08-17T22:48:27.230Z,45.90
2022-08-17T22:51:13.213Z,53.20
2022-08-17T22:53:53.788Z,55.87
2022-08-17T22:56:23.266Z,56.43
2022-08-17T22:58:58.870Z,62.20
2022-08-17T23:01:27.029Z,56.00
2022-08-17T23:03:55.911Z,60.07
2022-08-17T23:06:23.726Z,53.57
2022-08-17T23:08:52.283Z,52.20
2022-08-17T23:11:19.808Z,56.60
2022-08-17T23:17:21.103Z,54.93
2022-08-17T23:19:48.718Z,55.93
2022-08-17T23:22:16.319Z,60.77
2022-08-17T23:24:45.718Z,56.27
2022-08-17T23:27:13.293Z,52.40
2022-08-17T23:29:41.153Z,46.97
2022-08-17T23:32:10.116Z,56.37
2022-08-17T23:34:38.483Z,51.10
2022-08-17T23:37:06.592Z,53.80
2022-08-17T23:39:37.443Z,55.87
2022-08-17T23:42:06.886Z,58.20
2022-08-17T23:44:35.563Z,56.87
2022-08-17T23:47:03.089Z,57.63
2022-08-17T23:49:31.026Z,57.83
2022-08-17T23:52:00.136Z,54.73
2022-08-17T23:54:31.504Z,53.07
2022-08-17T23:57:02.417Z,62.43
2022-08-17T23:59:30.216Z,44.20
